AEE633 EGPH-LGAV
Flight info
| Callsign | AEE633 |
|---|---|
| Flight time | N/A |
| Altitude | 35000 |
| Route | TLA Y96 OTBUN DCT NATEB DCT GODOS DCT AMGOD DCT SPY DCT TIVUN DCT ESAMA DCT OSBIT DCT TENLO DCT LAMSI/N0446F370 DCT KOMAR DCT EDALA DCT GACMO DCT POD DCT RETRA DCT PINDO DCT PIKOS UL607 XORKI |
| Aircraft | A321/M-SDE3FGHIRWY/LB1 |
Departure
| Time | 2026-04-25 11:09 |
|---|---|
| Airport | Edinburgh Airport (EGPH) |
Arrival
| Time | N/A |
|---|---|
| Airport | Athens Eleftherios Venizelos International Airport (LGAV) |
| Time | Latitude | Longitude | Altitude | Speed | Heading |
|---|---|---|---|---|---|
| 2026-04-25 10:35 | 55.94943 | -3.36359 | 117 ft | 0 kts | 148° |
| 2026-04-25 11:01 | 55.94955 | -3.36372 | 112 ft | 4 kts | 153° |
| 2026-04-25 11:01 | 55.94980 | -3.36390 | 112 ft | 4 kts | 168° |
| 2026-04-25 11:02 | 55.95006 | -3.36393 | 113 ft | 4 kts | 198° |
| 2026-04-25 11:02 | 55.95021 | -3.36375 | 112 ft | 1 kts | 239° |
| 2026-04-25 11:02 | 55.95023 | -3.36369 | 112 ft | 0 kts | 239° |
| 2026-04-25 11:04 | 55.95023 | -3.36370 | 112 ft | 1 kts | 239° |
| 2026-04-25 11:04 | 55.95017 | -3.36387 | 112 ft | 6 kts | 239° |
| 2026-04-25 11:05 | 55.94954 | -3.36575 | 115 ft | 17 kts | 239° |
| 2026-04-25 11:05 | 55.94910 | -3.36769 | 115 ft | 17 kts | 273° |
| 2026-04-25 11:05 | 55.94897 | -3.36980 | 112 ft | 18 kts | 241° |
| 2026-04-25 11:05 | 55.94832 | -3.37175 | 113 ft | 19 kts | 239° |
| 2026-04-25 11:06 | 55.94757 | -3.37396 | 113 ft | 23 kts | 239° |
| 2026-04-25 11:06 | 55.94670 | -3.37651 | 113 ft | 24 kts | 239° |
| 2026-04-25 11:06 | 55.94581 | -3.37914 | 114 ft | 25 kts | 238° |
| 2026-04-25 11:06 | 55.94488 | -3.38185 | 114 ft | 26 kts | 239° |
| 2026-04-25 11:07 | 55.94395 | -3.38463 | 114 ft | 26 kts | 239° |
| 2026-04-25 11:07 | 55.94319 | -3.38688 | 113 ft | 18 kts | 239° |
| 2026-04-25 11:07 | 55.94304 | -3.38871 | 113 ft | 15 kts | 309° |
| 2026-04-25 11:07 | 55.94376 | -3.38956 | 114 ft | 13 kts | 344° |
| 2026-04-25 11:08 | 55.94448 | -3.38865 | 114 ft | 14 kts | 51° |
| 2026-04-25 11:08 | 55.94574 | -3.38501 | 113 ft | 70 kts | 59° |
| 2026-04-25 11:08 | 55.94947 | -3.37405 | 111 ft | 135 kts | 57° |
| 2026-04-25 11:08 | 55.95489 | -3.35812 | 527 ft | 152 kts | 60° |
| 2026-04-25 11:09 | 55.96049 | -3.34249 | 1353 ft | 150 kts | 52° |
| 2026-04-25 11:09 | 55.96845 | -3.32901 | 1796 ft | 168 kts | 44° |
| 2026-04-25 11:09 | 55.97770 | -3.31416 | 2095 ft | 190 kts | 45° |
| 2026-04-25 11:09 | 55.98808 | -3.29745 | 2353 ft | 212 kts | 44° |
| 2026-04-25 11:10 | 55.99953 | -3.27902 | 2573 ft | 237 kts | 43° |
| 2026-04-25 11:10 | 56.00813 | -3.26520 | 2831 ft | 252 kts | 43° |
| 2026-04-25 11:10 | 56.02582 | -3.23674 | 3650 ft | 263 kts | 41° |
| 2026-04-25 11:10 | 56.03952 | -3.21464 | 4376 ft | 267 kts | 42° |
| 2026-04-25 11:11 | 56.05103 | -3.18818 | 5092 ft | 275 kts | 62° |
| 2026-04-25 11:11 | 56.05626 | -3.15508 | 5748 ft | 283 kts | 86° |
| 2026-04-25 11:11 | 56.05364 | -3.12010 | 6442 ft | 287 kts | 109° |
| 2026-04-25 11:11 | 56.04394 | -3.08898 | 7121 ft | 289 kts | 132° |
| 2026-04-25 11:12 | 56.02881 | -3.06542 | 7789 ft | 290 kts | 144° |
| 2026-04-25 11:12 | 56.01322 | -3.04216 | 8437 ft | 296 kts | 132° |
| 2026-04-25 11:12 | 56.00195 | -3.01121 | 9079 ft | 300 kts | 118° |
| 2026-04-25 11:12 | 55.99156 | -2.97884 | 9766 ft | 302 kts | 123° |
| 2026-04-25 11:13 | 55.97986 | -2.94733 | 10400 ft | 307 kts | 123° |
| 2026-04-25 11:13 | 55.96759 | -2.91450 | 10570 ft | 329 kts | 123° |
| 2026-04-25 11:13 | 55.95446 | -2.87945 | 10693 ft | 350 kts | 124° |
| 2026-04-25 11:13 | 55.94052 | -2.84251 | 10816 ft | 369 kts | 124° |
| 2026-04-25 11:14 | 55.92592 | -2.80396 | 11159 ft | 379 kts | 124° |
| 2026-04-25 11:14 | 55.91108 | -2.76480 | 11685 ft | 384 kts | 124° |
| 2026-04-25 11:14 | 55.89611 | -2.72533 | 12233 ft | 387 kts | 124° |
| 2026-04-25 11:14 | 55.88095 | -2.68539 | 12803 ft | 391 kts | 124° |
| 2026-04-25 11:15 | 55.86565 | -2.64520 | 13364 ft | 394 kts | 124° |
| 2026-04-25 11:15 | 55.85017 | -2.60457 | 13909 ft | 398 kts | 124° |
| 2026-04-25 11:15 | 55.83459 | -2.56374 | 14411 ft | 401 kts | 124° |
| 2026-04-25 11:15 | 55.81882 | -2.52251 | 14915 ft | 404 kts | 124° |
| 2026-04-25 11:16 | 55.78703 | -2.43939 | 15954 ft | 409 kts | 124° |
| 2026-04-25 11:16 | 55.77120 | -2.39811 | 16453 ft | 411 kts | 124° |
| 2026-04-25 11:16 | 55.75502 | -2.35604 | 16937 ft | 413 kts | 124° |
| 2026-04-25 11:17 | 55.73878 | -2.31395 | 17463 ft | 414 kts | 124° |
| 2026-04-25 11:17 | 55.72245 | -2.27167 | 17968 ft | 416 kts | 125° |
| 2026-04-25 11:17 | 55.70602 | -2.22921 | 18445 ft | 419 kts | 124° |
| 2026-04-25 11:17 | 55.68943 | -2.18637 | 18796 ft | 423 kts | 124° |
| 2026-04-25 11:18 | 55.67271 | -2.14319 | 19159 ft | 426 kts | 124° |
| 2026-04-25 11:18 | 55.65635 | -2.10107 | 19547 ft | 428 kts | 124° |
| 2026-04-25 11:18 | 55.64003 | -2.05924 | 19944 ft | 430 kts | 124° |
| 2026-04-25 11:18 | 55.62297 | -2.01561 | 20354 ft | 432 kts | 124° |
| 2026-04-25 11:19 | 55.60583 | -1.97180 | 20777 ft | 434 kts | 124° |
| 2026-04-25 11:19 | 55.58863 | -1.92788 | 21194 ft | 435 kts | 124° |
| 2026-04-25 11:19 | 55.57132 | -1.88379 | 21612 ft | 437 kts | 124° |
| 2026-04-25 11:19 | 55.55397 | -1.83960 | 22010 ft | 439 kts | 124° |
| 2026-04-25 11:20 | 55.53653 | -1.79523 | 22402 ft | 441 kts | 124° |
| 2026-04-25 11:20 | 55.51902 | -1.75078 | 22788 ft | 443 kts | 124° |
| 2026-04-25 11:20 | 55.50138 | -1.70608 | 23171 ft | 445 kts | 124° |
| 2026-04-25 11:20 | 55.48362 | -1.66119 | 23526 ft | 447 kts | 124° |
| 2026-04-25 11:21 | 55.46577 | -1.61617 | 23860 ft | 450 kts | 124° |
| 2026-04-25 11:21 | 55.44776 | -1.57080 | 24155 ft | 452 kts | 124° |
| 2026-04-25 11:21 | 55.42968 | -1.52531 | 24455 ft | 455 kts | 124° |
| 2026-04-25 11:21 | 55.41150 | -1.47964 | 24753 ft | 457 kts | 125° |
| 2026-04-25 11:22 | 55.39320 | -1.43382 | 25048 ft | 459 kts | 125° |
| 2026-04-25 11:22 | 55.38097 | -1.40333 | 25244 ft | 460 kts | 125° |
| 2026-04-25 11:22 | 55.35619 | -1.34176 | 25634 ft | 463 kts | 125° |
| 2026-04-25 11:22 | 55.33758 | -1.29550 | 25920 ft | 465 kts | 125° |
| 2026-04-25 11:23 | 55.31890 | -1.24895 | 26212 ft | 467 kts | 125° |
| 2026-04-25 11:23 | 55.30018 | -1.20229 | 26498 ft | 469 kts | 125° |
| 2026-04-25 11:23 | 55.28135 | -1.15540 | 26772 ft | 471 kts | 125° |
| 2026-04-25 11:23 | 55.26240 | -1.10841 | 27035 ft | 473 kts | 125° |
| 2026-04-25 11:24 | 55.24330 | -1.06123 | 27254 ft | 476 kts | 126° |
| 2026-04-25 11:24 | 55.22406 | -1.01387 | 27456 ft | 479 kts | 126° |
| 2026-04-25 11:24 | 55.20466 | -0.96616 | 27678 ft | 481 kts | 126° |
| 2026-04-25 11:24 | 55.18524 | -0.91837 | 27906 ft | 483 kts | 126° |
| 2026-04-25 11:25 | 55.16572 | -0.87044 | 28111 ft | 484 kts | 126° |
| 2026-04-25 11:25 | 55.14610 | -0.82240 | 28322 ft | 486 kts | 126° |
| 2026-04-25 11:25 | 55.12671 | -0.77501 | 28596 ft | 486 kts | 126° |
| 2026-04-25 11:25 | 55.10706 | -0.72710 | 28887 ft | 485 kts | 126° |
| 2026-04-25 11:26 | 55.08741 | -0.67930 | 29186 ft | 485 kts | 126° |
| 2026-04-25 11:26 | 55.06773 | -0.63157 | 29476 ft | 484 kts | 126° |
| 2026-04-25 11:26 | 55.04806 | -0.58393 | 29771 ft | 484 kts | 126° |
| 2026-04-25 11:26 | 55.02876 | -0.53722 | 30044 ft | 483 kts | 126° |
| 2026-04-25 11:27 | 55.00912 | -0.48977 | 30334 ft | 483 kts | 126° |
| 2026-04-25 11:27 | 54.98943 | -0.44228 | 30589 ft | 482 kts | 126° |
| 2026-04-25 11:27 | 54.96981 | -0.39499 | 30855 ft | 481 kts | 126° |
| 2026-04-25 11:27 | 54.95684 | -0.36380 | 31021 ft | 481 kts | 127° |
| 2026-04-25 11:28 | 54.93058 | -0.30090 | 31376 ft | 480 kts | 127° |
| 2026-04-25 11:28 | 54.91094 | -0.25405 | 31638 ft | 479 kts | 127° |
| 2026-04-25 11:28 | 54.89134 | -0.20740 | 31906 ft | 478 kts | 127° |
| 2026-04-25 11:28 | 54.87178 | -0.16091 | 32154 ft | 477 kts | 127° |
| 2026-04-25 11:29 | 54.85220 | -0.11447 | 32429 ft | 476 kts | 127° |
| 2026-04-25 11:29 | 54.83294 | -0.06884 | 32688 ft | 475 kts | 127° |
| 2026-04-25 11:29 | 54.81344 | -0.02261 | 32943 ft | 474 kts | 127° |
| 2026-04-25 11:29 | 54.79396 | 0.02352 | 33160 ft | 475 kts | 126° |
| 2026-04-25 11:30 | 54.77446 | 0.06974 | 33323 ft | 476 kts | 126° |
| 2026-04-25 11:30 | 54.75488 | 0.11607 | 33526 ft | 477 kts | 126° |
| 2026-04-25 11:30 | 54.73530 | 0.16226 | 33782 ft | 475 kts | 127° |
| 2026-04-25 11:30 | 54.71574 | 0.20826 | 34061 ft | 473 kts | 127° |
| 2026-04-25 11:31 | 54.69620 | 0.25404 | 34305 ft | 472 kts | 127° |
| 2026-04-25 11:31 | 54.67668 | 0.29958 | 34525 ft | 472 kts | 127° |
| 2026-04-25 11:31 | 54.65712 | 0.34506 | 34727 ft | 471 kts | 127° |
| 2026-04-25 11:31 | 54.63761 | 0.39043 | 34927 ft | 470 kts | 127° |
| 2026-04-25 11:32 | 54.61816 | 0.43568 | 35120 ft | 470 kts | 127° |
| 2026-04-25 11:32 | 54.59865 | 0.48104 | 35226 ft | 470 kts | 127° |
| 2026-04-25 11:32 | 54.55964 | 0.57147 | 35243 ft | 471 kts | 127° |
| 2026-04-25 11:33 | 54.52029 | 0.66228 | 35243 ft | 474 kts | 127° |
| 2026-04-25 11:33 | 54.48076 | 0.75306 | 35238 ft | 473 kts | 128° |
| 2026-04-25 11:34 | 54.44133 | 0.84343 | 35236 ft | 472 kts | 128° |
| 2026-04-25 11:34 | 54.40187 | 0.93345 | 35241 ft | 472 kts | 128° |
| 2026-04-25 11:35 | 54.36230 | 1.02343 | 35248 ft | 473 kts | 128° |
| 2026-04-25 11:35 | 54.32254 | 1.11336 | 35241 ft | 474 kts | 127° |
| 2026-04-25 11:36 | 54.28268 | 1.20331 | 35233 ft | 475 kts | 128° |
| 2026-04-25 11:36 | 54.24288 | 1.29271 | 35236 ft | 476 kts | 128° |
| 2026-04-25 11:37 | 54.20275 | 1.38265 | 35236 ft | 476 kts | 128° |
| 2026-04-25 11:37 | 54.16259 | 1.47248 | 35245 ft | 476 kts | 128° |
| 2026-04-25 11:38 | 54.12235 | 1.56190 | 35247 ft | 475 kts | 128° |
| 2026-04-25 11:38 | 54.08199 | 1.65137 | 35247 ft | 476 kts | 128° |
| 2026-04-25 11:39 | 54.04157 | 1.74081 | 35236 ft | 477 kts | 128° |
| 2026-04-25 11:39 | 54.00100 | 1.83014 | 35236 ft | 478 kts | 128° |
| 2026-04-25 11:40 | 53.96025 | 1.91947 | 35231 ft | 478 kts | 129° |
| 2026-04-25 11:40 | 53.91970 | 2.00790 | 35238 ft | 478 kts | 129° |
| 2026-04-25 11:41 | 53.87881 | 2.09681 | 35242 ft | 478 kts | 129° |
| 2026-04-25 11:41 | 53.83788 | 2.18570 | 35229 ft | 479 kts | 129° |
| 2026-04-25 11:42 | 53.79772 | 2.27273 | 35226 ft | 480 kts | 129° |
| 2026-04-25 11:42 | 53.75646 | 2.36159 | 35218 ft | 481 kts | 129° |